Time;durP1;ratioP1;P1;durP2;ratioP2;P2;SDS_P1;SDS_P2;PMS_P1;PMS_P2;Temp;Humidity;BMP_temperature;BMP_pressure;BME280_temperature;BME280_humidity;BME280_pressure;Samples;Min_cycle;Max_cycle;Signal;HPM_P1;HPM_P2
2022/10/11 00:01:43;;;;;;;8.88;5.68;;;;;;;-145.69;100.00;71824.25;5060114;28;20199;-87
2022/10/11 00:04:09;;;;;;;9.02;5.07;;;;;;;-145.69;100.00;71822.28;5064657;28;20200;-87
2022/10/11 00:06:37;;;;;;;14.02;6.63;;;;;;;-145.69;100.00;71816.31;5062462;28;20286;-86
2022/10/11 00:09:04;;;;;;;12.52;6.32;;;;;;;-145.69;100.00;71822.28;5062647;28;20232;-86
2022/10/11 00:11:31;;;;;;;13.93;6.55;;;;;;;-145.69;100.00;71828.25;5057114;28;20653;-86
2022/10/11 00:13:57;;;;;;;16.67;6.85;;;;;;;-145.69;100.00;71828.25;5057744;28;20294;-86
2022/10/11 00:16:24;;;;;;;12.60;6.35;;;;;;;-145.69;100.00;71836.22;5057937;28;20203;-87
2022/10/11 00:18:50;;;;;;;20.90;6.82;;;;;;;-145.69;100.00;71832.22;5059434;28;20701;-86
2022/10/11 00:21:17;;;;;;;13.73;6.70;;;;;;;-145.69;100.00;71828.25;5057889;28;20204;-86
2022/10/11 00:23:45;;;;;;;13.32;6.32;;;;;;;-145.69;100.00;71836.22;5058683;28;20217;-86
2022/10/11 00:26:12;;;;;;;10.00;5.80;;;;;;;-145.69;100.00;71838.19;5057285;28;20654;-86
2022/10/11 00:28:39;;;;;;;11.95;6.22;;;;;;;-145.69;100.00;71844.16;5055891;28;20313;-86
2022/10/11 00:31:07;;;;;;;11.38;5.90;;;;;;;-145.69;100.00;71850.13;5057334;28;20202;-87
2022/10/11 00:33:34;;;;;;;13.38;6.30;;;;;;;-145.69;100.00;71844.16;5059303;28;20669;-86
2022/10/11 00:36:00;;;;;;;12.88;6.15;;;;;;;-145.69;100.00;71852.13;5061669;28;20676;-86
2022/10/11 00:38:27;;;;;;;14.85;5.80;;;;;;;-145.69;100.00;71844.16;5067541;28;20210;-86
2022/10/11 00:40:55;;;;;;;17.13;6.30;;;;;;;-145.69;100.00;71850.13;5085326;28;20561;-86
2022/10/11 00:43:24;;;;;;;20.00;5.97;;;;;;;-145.69;100.00;71852.13;5087075;28;20199;-86
2022/10/11 00:46:25;;;;;;;15.65;6.15;;;;;;;-145.69;100.00;71848.16;5074776;28;20200;-87
2022/10/11 00:48:57;;;;;;;14.63;6.30;;;;;;;-145.69;100.00;71854.13;5055110;28;20282;-85
2022/10/11 00:51:32;;;;;;;17.23;6.15;;;;;;;-145.69;100.00;71860.09;5054983;28;20187;-85
2022/10/11 00:54:01;;;;;;;15.13;6.55;;;;;;;-145.69;100.00;71858.09;5055176;28;20207;-85
2022/10/11 00:56:32;;;;;;;13.40;6.97;;;;;;;-145.69;100.00;71844.16;5056142;28;20673;-86
2022/10/11 00:59:02;;;;;;;16.15;7.43;;;;;;;-145.69;100.00;71848.16;5060802;28;20203;-86
2022/10/11 01:01:29;;;;;;;21.38;6.60;;;;;;;-145.69;100.00;71840.19;5057487;28;20203;-85
2022/10/11 01:03:56;;;;;;;14.05;6.68;;;;;;;-145.69;100.00;71840.19;5059951;28;20269;-86
2022/10/11 01:06:23;;;;;;;16.98;7.15;;;;;;;-145.69;100.00;71850.13;5079676;28;20222;-86
2022/10/11 01:08:51;;;;;;;14.98;6.47;;;;;;;-145.69;100.00;71858.09;5068299;28;20195;-86
2022/10/11 01:11:24;;;;;;;17.23;6.25;;;;;;;-145.69;100.00;71864.06;5055208;28;20673;-85
2022/10/11 01:14:08;;;;;;;15.20;5.78;;;;;;;-145.69;100.00;71866.06;5054175;28;20200;-85
2022/10/11 01:16:42;;;;;;;12.85;5.30;;;;;;;-145.69;100.00;71866.06;5064678;28;20213;-85
2022/10/11 01:19:30;;;;;;;17.20;6.47;;;;;;;-145.69;100.00;71872.03;5076320;28;20264;-86
2022/10/11 01:22:11;;;;;;;13.00;5.30;;;;;;;-145.69;100.00;71880.00;5081264;28;20194;-86
2022/10/11 01:25:00;;;;;;;13.57;5.97;;;;;;;-145.69;100.00;71885.97;5077981;28;20205;-86
2022/10/11 01:27:41;;;;;;;20.80;6.18;;;;;;;-145.69;100.00;71887.94;5076722;28;20231;-86
2022/10/11 01:30:19;;;;;;;20.48;6.30;;;;;;;-145.69;100.00;71897.91;5053964;28;20670;-84
2022/10/11 01:32:56;;;;;;;15.75;6.60;;;;;;;-145.69;100.00;71905.88;5053971;28;20207;-86
2022/10/11 01:35:30;;;;;;;17.23;5.97;;;;;;;-145.69;100.00;71931.72;5053774;28;20199;-85
2022/10/11 01:38:02;;;;;;;17.23;6.03;;;;;;;-145.69;100.00;71931.72;5054098;28;20211;-86
2022/10/11 01:40:34;;;;;;;14.60;6.28;;;;;;;-145.69;100.00;71931.72;5053681;28;20765;-86
2022/10/11 01:43:03;;;;;;;15.43;6.32;;;;;;;-145.69;100.00;71933.72;5054467;28;20191;-85
2022/10/11 01:45:32;;;;;;;10.57;5.70;;;;;;;-145.69;100.00;71959.59;5055165;28;20203;-84
2022/10/11 01:48:05;;;;;;;13.27;6.75;;;;;;;-145.69;100.00;71959.59;5074022;28;20213;-85
2022/10/11 01:50:40;;;;;;;11.43;5.80;;;;;;;-145.69;100.00;71975.50;5073771;28;20198;-85
2022/10/11 01:53:20;;;;;;;18.42;5.13;;;;;;;-145.69;100.00;71991.44;5056681;28;20668;-84
2022/10/11 01:55:50;;;;;;;11.43;5.07;;;;;;;-145.69;100.00;72019.31;5054010;28;20202;-86
2022/10/11 01:58:26;;;;;;;11.23;5.47;;;;;;;-145.69;100.00;72031.25;5054578;28;20658;-86
2022/10/11 02:01:04;;;;;;;15.60;5.80;;;;;;;-145.69;100.00;72041.19;5060366;28;20227;-86
2022/10/11 02:03:37;;;;;;;15.55;5.80;;;;;;;-145.69;100.00;72051.16;5061980;28;20198;-86
2022/10/11 02:06:09;;;;;;;14.25;5.55;;;;;;;-145.69;100.00;72059.09;5081418;28;20262;-86
2022/10/11 02:08:42;;;;;;;16.97;6.33;;;;;;;-145.69;100.00;72051.16;5078797;28;20202;-87
2022/10/11 02:11:15;;;;;;;22.40;6.53;;;;;;;-145.69;100.00;72045.16;5082725;28;20202;-87
2022/10/11 02:13:47;;;;;;;14.77;6.13;;;;;;;-145.69;100.00;72059.09;5078504;28;20194;-85
2022/10/11 02:16:20;;;;;;;18.20;6.03;;;;;;;-145.69;100.00;72069.06;5066881;28;20195;-86
2022/10/11 02:18:49;;;;;;;23.30;6.50;;;;;;;-145.69;100.00;72059.09;5057280;28;20239;-86
2022/10/11 02:21:19;;;;;;;22.30;7.63;;;;;;;-145.69;100.00;72067.06;5061827;28;20280;-86
2022/10/11 02:23:49;;;;;;;30.10;7.27;;;;;;;-145.69;100.00;72079.00;5063663;28;20206;-87
2022/10/11 02:26:18;;;;;;;22.93;6.97;;;;;;;-145.69;100.00;72086.97;5064123;28;20202;-87
2022/10/11 02:28:47;;;;;;;16.97;6.63;;;;;;;-145.69;100.00;72092.94;5077299;28;20211;-86
2022/10/11 02:31:17;;;;;;;20.13;6.37;;;;;;;-145.69;100.00;72102.88;5086441;28;20207;-87
2022/10/11 02:33:48;;;;;;;17.60;6.20;;;;;;;-145.69;100.00;72102.88;5088088;28;20201;-87
2022/10/11 02:36:26;;;;;;;18.30;7.17;;;;;;;-145.69;100.00;72102.88;5089737;28;20194;-87
2022/10/11 02:38:58;;;;;;;18.20;7.63;;;;;;;-145.69;100.00;72098.91;5082839;28;20222;-86
2022/10/11 02:41:29;;;;;;;15.50;6.70;;;;;;;-145.69;100.00;72122.78;5068000;28;20211;-87
2022/10/11 02:44:00;;;;;;;13.63;6.20;;;;;;;-145.69;100.00;72136.72;5069152;28;20203;-87
2022/10/11 02:46:30;;;;;;;22.53;8.30;;;;;;;-145.69;100.00;72106.88;5067556;28;20218;-87
2022/10/11 02:48:57;;;;;;;26.57;8.50;;;;;;;-145.69;100.00;72104.88;5068813;28;20195;-87
2022/10/11 02:51:26;;;;;;;26.93;9.10;;;;;;;-145.69;100.00;52555.28;5066870;28;20286;-87
2022/10/11 02:53:53;;;;;;;28.10;9.83;;;;;;;-145.69;100.00;52555.28;5090909;28;20198;-87
2022/10/11 02:56:19;;;;;;;24.40;9.07;;;;;;;-145.69;100.00;52571.13;5091980;28;20207;-87
2022/10/11 02:58:48;;;;;;;22.60;8.57;;;;;;;-145.69;100.00;52571.13;5089253;28;20202;-87
2022/10/11 03:01:15;;;;;;;16.57;7.07;;;;;;;-145.69;100.00;52543.41;5090207;28;20226;-87
2022/10/11 03:03:43;;;;;;;20.70;8.32;;;;;;;-145.69;100.00;52529.53;5091246;28;20195;-87
2022/10/11 03:06:10;;;;;;;19.27;7.73;;;;;;;-145.69;100.00;52565.19;5090405;28;20214;-87
2022/10/11 03:08:36;;;;;;;17.73;8.13;;;;;;;-145.69;100.00;52553.31;5091891;28;20206;-86
2022/10/11 03:11:03;;;;;;;23.27;8.87;;;;;;;-145.69;100.00;52573.13;5089175;28;20626;-87
2022/10/11 03:13:29;;;;;;;22.57;8.80;;;;;;;-145.69;100.00;52567.16;5086898;28;20234;-86
2022/10/11 03:15:56;;;;;;;28.70;8.17;;;;;;;-145.69;100.00;52547.38;5089844;28;20199;-87
2022/10/11 03:18:22;;;;;;;18.77;7.57;;;;;;;-145.69;100.00;52555.28;5090750;28;20231;-86
2022/10/11 03:20:50;;;;;;;23.93;8.43;;;;;;;-145.69;100.00;52535.47;5090570;28;20222;-86
2022/10/11 03:23:17;;;;;;;22.57;8.53;;;;;;;-145.69;100.00;52535.47;5093175;28;20206;-87
2022/10/11 03:25:44;;;;;;;20.80;7.93;;;;;;;-145.69;100.00;52563.22;5089720;28;20198;-87
2022/10/11 03:28:11;;;;;;;23.23;8.40;;;;;;;-145.69;100.00;52575.09;5081031;28;20205;-87
2022/10/11 03:30:37;;;;;;;17.60;8.37;;;;;;;-145.69;100.00;52557.28;5069739;28;20210;-87
2022/10/11 03:33:05;;;;;;;21.53;9.30;;;;;;;-145.69;100.00;52531.53;5067598;28;20206;-85
2022/10/11 03:35:31;;;;;;;21.13;9.37;;;;;;;-145.69;100.00;52583.00;5070592;28;20207;-86
2022/10/11 03:37:59;;;;;;;26.57;9.40;;;;;;;-145.69;100.00;52596.88;5071234;28;20204;-87
2022/10/11 03:40:25;;;;;;;24.02;9.02;;;;;;;-145.69;100.00;52527.56;5080527;28;20242;-87
2022/10/11 03:42:53;;;;;;;27.00;9.17;;;;;;;-145.69;100.00;52586.97;5093501;28;20233;-87
2022/10/11 03:45:20;;;;;;;21.25;8.20;;;;;;;-145.69;100.00;52541.44;5093693;28;20206;-87
2022/10/11 03:47:46;;;;;;;20.15;8.10;;;;;;;-145.69;100.00;52521.63;5089681;28;20233;-87
2022/10/11 03:50:13;;;;;;;23.50;9.70;;;;;;;-145.69;100.00;52533.50;5090679;28;20294;-86
2022/10/11 03:52:39;;;;;;;20.90;9.52;;;;;;;-145.69;100.00;52563.22;5090851;28;20557;-87
2022/10/11 03:55:09;;;;;;;23.50;9.10;;;;;;;-145.69;100.00;52575.09;5089637;28;20195;-85
2022/10/11 03:57:35;;;;;;;17.43;7.67;;;;;;;-145.69;100.00;52557.28;5088681;28;20258;-87
2022/10/11 04:00:02;;;;;;;17.33;7.03;;;;;;;-145.69;100.00;52588.97;5089032;28;20226;-86
2022/10/11 04:02:28;;;;;;;17.60;8.23;;;;;;;-145.69;100.00;52545.38;5089265;28;20273;-86
2022/10/11 04:04:55;;;;;;;22.93;7.60;;;;;;;-145.69;100.00;52579.06;5088985;28;20656;-86
2022/10/11 04:07:21;;;;;;;19.45;7.47;;;;;;;-145.69;100.00;52590.94;5091999;28;20217;-88
2022/10/11 04:09:48;;;;;;;19.03;7.50;;;;;;;-145.69;100.00;52569.16;5090308;28;20199;-86
2022/10/11 04:12:15;;;;;;;19.00;8.43;;;;;;;-145.69;100.00;52551.31;5083928;28;20569;-86
2022/10/11 04:14:42;;;;;;;21.40;8.23;;;;;;;-145.69;100.00;52565.19;5084550;28;20668;-85
2022/10/11 04:17:08;;;;;;;28.57;8.93;;;;;;;-145.69;100.00;52575.09;5086688;28;20290;-85
2022/10/11 04:19:36;;;;;;;22.33;7.85;;;;;;;-145.69;100.00;52555.28;5083897;28;20198;-86
2022/10/11 04:22:02;;;;;;;19.90;7.80;;;;;;;-145.69;100.00;52557.28;5081006;28;20222;-86
2022/10/11 04:24:29;;;;;;;20.02;7.68;;;;;;;-145.69;100.00;52557.28;5081342;28;20289;-86
2022/10/11 04:26:56;;;;;;;20.20;8.48;;;;;;;-145.69;100.00;52531.53;5082689;28;20282;-85
2022/10/11 04:29:24;;;;;;;27.00;8.98;;;;;;;-145.69;100.00;52567.16;5077572;28;20282;-86
2022/10/11 04:31:51;;;;;;;16.50;7.70;;;;;;;-145.69;100.00;52553.31;5064591;28;20256;-86
2022/10/11 04:34:17;;;;;;;17.33;7.13;;;;;;;-145.69;100.00;52577.06;5061973;28;20203;-86
2022/10/11 04:36:44;;;;;;;24.02;8.50;;;;;;;-145.69;100.00;52535.47;5080511;28;20206;-87
2022/10/11 04:39:11;;;;;;;22.00;8.32;;;;;;;-145.69;100.00;52545.38;5064101;28;20206;-86
2022/10/11 04:41:38;;;;;;;27.13;9.35;;;;;;;-145.69;100.00;52569.16;5070937;28;20454;-86
2022/10/11 04:44:05;;;;;;;15.80;7.57;;;;;;;-145.69;100.00;52565.19;5089370;28;20653;-85
2022/10/11 04:46:33;;;;;;;25.95;7.03;;;;;;;-145.69;100.00;52551.31;5087329;28;20721;-86
2022/10/11 04:48:59;;;;;;;18.08;6.68;;;;;;;-145.69;100.00;52543.41;5079695;28;20198;-87
2022/10/11 04:51:26;;;;;;;19.50;7.88;;;;;;;-145.69;100.00;52539.44;5082672;28;20202;-86
2022/10/11 04:53:52;;;;;;;18.20;7.72;;;;;;;-145.69;100.00;52549.34;5087834;28;20570;-86
2022/10/11 04:56:19;;;;;;;15.95;6.82;;;;;;;-145.69;100.00;52537.47;5088898;28;20198;-87
2022/10/11 04:58:46;;;;;;;18.23;7.82;;;;;;;-145.69;100.00;52549.34;5088649;28;20646;-86
2022/10/11 05:01:13;;;;;;;24.45;7.65;;;;;;;-145.69;100.00;52571.13;5087712;28;20235;-87
2022/10/11 05:03:41;;;;;;;24.35;7.75;;;;;;;-145.69;100.00;52583.00;5087364;28;20210;-86
2022/10/11 05:06:08;;;;;;;22.63;8.27;;;;;;;-145.69;100.00;52559.25;5086469;28;20201;-87
2022/10/11 05:08:36;;;;;;;22.65;7.95;;;;;;;-145.69;100.00;52541.44;5084316;28;20207;-86
2022/10/11 05:11:05;;;;;;;23.52;9.20;;;;;;;-145.69;100.00;52561.22;5088180;28;20203;-86
2022/10/11 05:13:33;;;;;;;21.73;8.10;;;;;;;-145.69;100.00;52537.47;5089365;28;20312;-86
2022/10/11 05:15:59;;;;;;;32.60;10.52;;;;;;;-145.69;100.00;52535.47;5089869;28;20271;-87
2022/10/11 05:18:28;;;;;;;20.25;8.77;;;;;;;-145.69;100.00;52563.22;5087750;28;20237;-87
2022/10/11 05:21:01;;;;;;;21.33;7.30;;;;;;;-145.69;100.00;52543.41;5087993;28;20282;-87
2022/10/11 05:23:28;;;;;;;21.67;8.25;;;;;;;-145.69;100.00;52533.50;5083379;28;20435;-86
2022/10/11 05:25:55;;;;;;;20.77;8.48;;;;;;;-145.69;100.00;52547.38;5082966;28;20266;-87
2022/10/11 05:28:22;;;;;;;20.00;8.45;;;;;;;-145.69;100.00;52545.38;5081804;28;20206;-87
2022/10/11 05:30:48;;;;;;;22.52;10.05;;;;;;;-145.69;100.00;52539.44;5067588;28;20195;-87
2022/10/11 05:33:15;;;;;;;19.02;8.85;;;;;;;-145.69;100.00;52575.09;5057461;28;20630;-86
2022/10/11 05:35:42;;;;;;;12.65;7.05;;;;;;;-145.69;100.00;52515.69;5057886;28;20282;-86
2022/10/11 05:38:10;;;;;;;15.88;7.80;;;;;;;-145.69;100.00;52555.28;5056902;28;20202;-87
2022/10/11 05:40:37;;;;;;;18.27;7.60;;;;;;;-145.69;100.00;52537.47;5054416;28;20771;-85
2022/10/11 05:43:04;;;;;;;17.63;8.93;;;;;;;-145.69;100.00;52561.22;5069265;28;20199;-86
2022/10/11 05:45:32;;;;;;;14.63;6.18;;;;;;;-145.69;100.00;52561.22;5074394;28;20207;-86
2022/10/11 05:47:59;;;;;;;19.75;9.15;;;;;;;-145.69;100.00;52539.44;5075500;28;20195;-86
2022/10/11 05:50:25;;;;;;;22.02;7.80;;;;;;;-145.69;100.00;52555.28;5077059;28;20201;-86
2022/10/11 05:52:52;;;;;;;20.92;8.65;;;;;;;-145.69;100.00;52555.28;5078340;28;20234;-86
2022/10/11 05:55:20;;;;;;;25.20;8.57;;;;;;;-145.69;100.00;52543.41;5077353;28;20653;-86
2022/10/11 05:57:46;;;;;;;16.55;7.53;;;;;;;-145.69;100.00;52551.31;5077846;28;20252;-86
2022/10/11 06:00:13;;;;;;;18.95;7.85;;;;;;;-145.69;100.00;52553.31;5076800;28;20209;-86
2022/10/11 06:02:40;;;;;;;20.98;7.45;;;;;;;-145.69;100.00;52547.38;5075387;28;20199;-85
2022/10/11 06:05:08;;;;;;;21.55;8.13;;;;;;;-145.69;100.00;52535.47;5075216;28;20205;-85
2022/10/11 06:07:36;;;;;;;21.48;8.55;;;;;;;-145.69;100.00;52539.44;5035991;28;20238;-85
2022/10/11 06:10:03;;;;;;;23.55;7.97;;;;;;;-145.69;100.00;52543.41;5035673;28;20207;-86
2022/10/11 06:12:31;;;;;;;19.83;9.18;;;;;;;-145.69;100.00;52527.56;5035858;28;20210;-86
2022/10/11 06:14:58;;;;;;;24.17;9.55;;;;;;;-145.69;100.00;52559.25;5036037;28;20200;-86
2022/10/11 06:17:24;;;;;;;22.88;8.85;;;;;;;-145.69;100.00;52571.13;5035828;28;20230;-85
2022/10/11 06:19:51;;;;;;;16.98;8.27;;;;;;;-145.69;100.00;52535.47;5075876;28;20233;-86
2022/10/11 06:22:18;;;;;;;18.23;8.50;;;;;;;-145.69;100.00;52559.25;5077148;28;20226;-86
2022/10/11 06:24:45;;;;;;;29.00;9.48;;;;;;;-145.69;100.00;52553.31;5077200;28;20292;-85
2022/10/11 06:27:12;;;;;;;25.77;9.35;;;;;;;-145.69;100.00;52557.28;5077935;28;20664;-85
2022/10/11 06:29:40;;;;;;;23.65;9.50;;;;;;;-145.69;100.00;52575.09;5063387;28;20282;-85
2022/10/11 06:32:06;;;;;;;24.77;9.73;;;;;;;-145.69;100.00;52539.44;5059253;28;20206;-85
2022/10/11 06:34:33;;;;;;;30.20;12.70;;;;;;;-145.69;100.00;52527.56;5055668;28;20206;-85
2022/10/11 06:36:59;;;;;;;29.13;12.30;;;;;;;-145.69;100.00;52535.47;5054560;28;20210;-86
2022/10/11 06:39:26;;;;;;;36.60;12.98;;;;;;;-145.69;100.00;52525.59;5055682;28;20201;-86
2022/10/11 06:41:52;;;;;;;31.92;12.95;;;;;;;-145.69;100.00;52529.53;5061113;28;20895;-86
2022/10/11 06:44:19;;;;;;;53.65;15.93;;;;;;;-145.69;100.00;52559.25;5075429;28;20210;-86
2022/10/11 06:46:47;;;;;;;42.83;15.85;;;;;;;-145.69;100.00;52553.31;5076508;28;20225;-86
2022/10/11 06:49:13;;;;;;;37.08;15.23;;;;;;;-145.69;100.00;52569.16;5075667;28;20203;-85
2022/10/11 06:51:39;;;;;;;37.80;14.35;;;;;;;-145.69;100.00;52531.53;5075768;28;20650;-85
2022/10/11 06:54:06;;;;;;;40.25;16.23;;;;;;;-145.69;100.00;52535.47;5075900;28;20199;-86
2022/10/11 06:56:32;;;;;;;31.63;13.25;;;;;;;-145.69;100.00;52527.56;5075395;28;20199;-85
2022/10/11 06:58:59;;;;;;;39.78;16.33;;;;;;;-145.69;100.00;52531.53;5076364;28;20207;-84
2022/10/11 07:01:26;;;;;;;39.28;15.18;;;;;;;-145.69;100.00;52529.53;5077205;28;20696;-85
2022/10/11 07:03:57;;;;;;;32.75;14.93;;;;;;;-145.69;100.00;52571.13;5076571;28;20240;-86
2022/10/11 07:06:25;;;;;;;36.40;15.55;;;;;;;-145.69;100.00;52515.69;5074426;28;20203;-84
2022/10/11 07:08:52;;;;;;;37.75;14.73;;;;;;;-145.69;100.00;52541.44;5072459;28;20302;-85
2022/10/11 07:11:21;;;;;;;37.22;15.30;;;;;;;-145.69;100.00;52523.59;5057798;28;20206;-86
2022/10/11 07:13:50;;;;;;;35.83;15.05;;;;;;;-145.69;100.00;52563.22;5056886;28;20207;-86
2022/10/11 07:16:16;;;;;;;37.30;14.95;;;;;;;-145.69;100.00;52539.44;5057722;28;20222;-86
2022/10/11 07:18:43;;;;;;;46.92;16.45;;;;;;;-145.69;100.00;52511.72;5058255;28;20227;-84
2022/10/11 07:21:14;;;;;;;70.15;15.95;;;;;;;-145.69;100.00;52537.47;5058510;28;20219;-85
2022/10/11 07:23:41;;;;;;;26.67;13.65;;;;;;;-145.69;100.00;52521.63;5060249;28;20282;-85
2022/10/11 07:26:09;;;;;;;39.28;14.82;;;;;;;-145.69;100.00;52531.53;5061750;28;20199;-86
2022/10/11 07:28:37;;;;;;;57.92;16.45;;;;;;;-145.69;100.00;52555.28;5065587;28;20279;-86
2022/10/11 07:31:05;;;;;;;45.75;14.70;;;;;;;-145.69;100.00;52527.56;5060859;28;20325;-87
2022/10/11 07:33:31;;;;;;;64.00;16.35;;;;;;;-145.69;100.00;52531.53;5061193;28;20298;-86
2022/10/11 07:35:58;;;;;;;29.60;14.43;;;;;;;-145.69;100.00;52537.47;5064608;28;20654;-86
2022/10/11 07:38:26;;;;;;;29.90;14.80;;;;;;;-145.69;100.00;52521.63;5058713;28;20203;-85
2022/10/11 07:40:52;;;;;;;40.13;15.82;;;;;;;-145.69;100.00;52515.69;5056542;28;20210;-86
2022/10/11 07:43:19;;;;;;;30.33;13.55;;;;;;;-145.69;100.00;52521.63;5058035;28;20206;-86
2022/10/11 07:45:47;;;;;;;38.70;14.93;;;;;;;-145.69;100.00;52487.97;5057425;28;20204;-87
2022/10/11 07:48:14;;;;;;;31.42;13.52;;;;;;;-145.69;100.00;52541.44;5057231;28;20200;-87
2022/10/11 07:50:40;;;;;;;29.45;12.43;;;;;;;-145.69;100.00;52525.59;5056695;28;20199;-86
2022/10/11 07:53:07;;;;;;;25.95;11.57;;;;;;;-145.69;100.00;52555.28;5056346;28;20207;-86
2022/10/11 07:55:38;;;;;;;25.27;12.77;;;;;;;-145.69;100.00;52511.72;5061191;28;20191;-86
2022/10/11 07:58:05;;;;;;;26.27;11.20;;;;;;;-145.69;100.00;52533.50;5066174;28;20199;-86
2022/10/11 08:00:32;;;;;;;26.10;11.30;;;;;;;-145.69;100.00;52515.69;5047147;28;20196;-86
2022/10/11 08:03:01;;;;;;;24.92;11.63;;;;;;;-145.69;100.00;52539.44;5044322;28;20227;-85
2022/10/11 08:05:28;;;;;;;28.13;12.85;;;;;;;-145.69;100.00;52525.59;5044850;28;20202;-86
2022/10/11 08:07:54;;;;;;;24.60;11.68;;;;;;;-145.69;100.00;52515.69;5055935;28;20206;-86
2022/10/11 08:10:21;;;;;;;22.52;11.20;;;;;;;-145.69;100.00;52527.56;5055623;28;20199;-86
2022/10/11 08:12:49;;;;;;;22.45;10.82;;;;;;;-145.69;100.00;52537.47;5055505;28;20200;-86
2022/10/11 08:15:16;;;;;;;18.33;10.15;;;;;;;-145.69;100.00;52523.59;5060412;28;20446;-86
2022/10/11 08:17:42;;;;;;;15.05;8.65;;;;;;;-145.69;100.00;52515.69;5075760;28;20231;-86
2022/10/11 08:20:10;;;;;;;18.15;8.05;;;;;;;-145.69;100.00;52523.59;5075091;28;20203;-87
2022/10/11 08:22:36;;;;;;;20.40;7.10;;;;;;;-145.69;100.00;52495.88;5075043;28;20234;-86
2022/10/11 08:25:03;;;;;;;14.75;6.63;;;;;;;-145.69;100.00;52499.84;5075321;28;20203;-86
2022/10/11 08:27:29;;;;;;;15.95;6.80;;;;;;;-145.69;100.00;52515.69;5065309;28;20196;-86
2022/10/11 08:29:57;;;;;;;12.50;6.43;;;;;;;-145.69;100.00;52495.88;5053952;28;20200;-86
2022/10/11 08:32:24;;;;;;;12.57;7.22;;;;;;;-145.69;100.00;52507.75;5055072;28;20208;-86
2022/10/11 08:34:50;;;;;;;15.15;8.50;;;;;;;-145.69;100.00;52484.00;5055109;28;20199;-86
2022/10/11 08:37:17;;;;;;;18.55;9.55;;;;;;;-145.69;100.00;52503.81;5052481;28;20398;-85
2022/10/11 08:39:43;;;;;;;23.08;10.77;;;;;;;-145.69;100.00;52511.72;5061837;28;20198;-85
2022/10/11 08:42:18;;;;;;;24.92;10.63;;;;;;;-145.69;100.00;52511.72;5074643;28;20241;-86
2022/10/11 08:44:51;;;;;;;22.02;11.35;;;;;;;-145.69;100.00;52503.81;5075062;28;20206;-86
2022/10/11 08:47:23;;;;;;;22.88;10.50;;;;;;;-145.69;100.00;52484.00;5074853;28;20676;-86
2022/10/11 08:49:50;;;;;;;21.50;11.02;;;;;;;-145.69;100.00;52493.91;5074827;28;20202;-85
2022/10/11 08:52:22;;;;;;;19.00;10.63;;;;;;;-145.69;100.00;52495.88;5075162;28;20226;-85
2022/10/11 08:54:54;;;;;;;47.33;11.82;;;;;;;-145.69;100.00;52523.59;5074714;28;20209;-86
2022/10/11 08:57:22;;;;;;;27.55;11.52;;;;;;;-145.69;100.00;52531.53;5074770;28;20574;-86
2022/10/11 08:59:52;;;;;;;41.17;13.50;;;;;;;-145.69;100.00;52507.75;5074562;28;20202;-85
2022/10/11 09:02:37;;;;;;;100.85;15.70;;;;;;;-145.69;100.00;52527.56;5074475;28;20233;-86
2022/10/11 09:05:06;;;;;;;40.80;13.48;;;;;;;-145.69;100.00;52491.91;5074505;28;20203;-85
2022/10/11 09:07:44;;;;;;;113.78;14.23;;;;;;;-145.69;100.00;52535.47;5074286;28;20195;-84
2022/10/11 09:10:33;;;;;;;65.40;14.07;;;;;;;-145.69;100.00;52521.63;5073842;28;20207;-84
2022/10/11 09:13:12;;;;;;;126.40;15.40;;;;;;;-145.69;100.00;52480.03;5074395;28;20206;-85
2022/10/11 09:15:45;;;;;;;62.40;15.05;;;;;;;-145.69;100.00;52517.66;5073330;28;20190;-86
2022/10/11 09:18:36;;;;;;;187.57;18.30;;;;;;;-145.69;100.00;52507.75;5075151;28;20230;-85
2022/10/11 09:21:15;;;;;;;54.70;14.65;;;;;;;-145.69;100.00;52527.56;5075006;28;20211;-84
2022/10/11 09:24:00;;;;;;;72.30;19.35;;;;;;;-145.69;100.00;52531.53;5075399;28;20206;-86
2022/10/11 09:26:28;;;;;;;48.05;16.00;;;;;;;-145.69;100.00;52519.63;5075226;28;20210;-84
2022/10/11 09:29:02;;;;;;;50.30;17.95;;;;;;;-145.69;100.00;52527.56;5074757;28;20203;-85
2022/10/11 09:31:30;;;;;;;59.20;17.65;;;;;;;-145.69;100.00;52511.72;5073613;28;20660;-85
2022/10/11 09:34:00;;;;;;;40.15;15.95;;;;;;;-145.69;100.00;52527.56;5074457;28;20668;-86
2022/10/11 09:36:35;;;;;;;34.67;15.02;;;;;;;-145.69;100.00;52509.75;5074197;28;20202;-86
2022/10/11 09:39:11;;;;;;;29.23;13.85;;;;;;;-145.69;100.00;52519.63;5073949;28;20205;-86
2022/10/11 09:41:46;;;;;;;31.42;13.27;;;;;;;-145.69;100.00;52531.53;5074132;28;20202;-87
2022/10/11 09:44:21;;;;;;;35.88;14.07;;;;;;;-145.69;100.00;52539.44;5084139;28;20206;-84
2022/10/11 09:46:50;;;;;;;33.97;13.25;;;;;;;-145.69;100.00;52549.34;5074172;28;20201;-84
2022/10/11 09:49:21;;;;;;;31.08;13.68;;;;;;;-145.69;100.00;52513.69;5074217;28;20226;-83
2022/10/11 09:51:53;;;;;;;37.85;14.48;;;;;;;-145.69;100.00;52523.59;5060433;28;20210;-85
2022/10/11 09:54:26;;;;;;;32.08;13.57;;;;;;;-145.69;100.00;52543.41;5057345;28;20298;-86
2022/10/11 09:56:53;;;;;;;33.15;15.00;;;;;;;-145.69;100.00;52555.28;5056489;28;20252;-86
2022/10/11 09:59:27;;;;;;;31.98;14.05;;;;;;;-145.69;100.00;52527.56;5056533;28;20574;-86
2022/10/11 10:02:20;;;;;;;34.28;14.80;;;;;;;-145.69;100.00;52515.69;5056131;28;20219;-86
2022/10/11 10:05:12;;;;;;;43.72;20.80;;;;;;;-145.69;100.00;52543.41;5053522;28;20439;-85
2022/10/11 10:07:56;;;;;;;32.63;14.57;;;;;;;-145.69;100.00;52571.13;5054086;28;20203;-87
2022/10/11 10:10:29;;;;;;;36.78;16.02;;;;;;;-145.69;100.00;52515.69;5053589;28;20199;-86
2022/10/11 10:12:59;;;;;;;28.40;13.13;;;;;;;-145.69;100.00;52487.97;5053120;28;20562;-83
2022/10/11 10:15:29;;;;;;;23.95;11.65;;;;;;;-145.69;100.00;52493.91;5053793;28;20696;-85
2022/10/11 10:17:56;;;;;;;24.85;11.32;;;;;;;-145.69;100.00;52517.66;5054473;28;20231;-84
2022/10/11 10:20:27;;;;;;;23.95;11.75;;;;;;;-145.69;100.00;52531.53;5057734;28;20199;-85
2022/10/11 10:22:54;;;;;;;23.08;12.18;;;;;;;-145.69;100.00;52511.72;5057046;28;20234;-86
2022/10/11 10:25:26;;;;;;;24.92;11.98;;;;;;;-145.69;100.00;52499.84;5054861;28;20306;-86
2022/10/11 10:27:57;;;;;;;24.48;12.73;;;;;;;-145.69;100.00;52519.63;5067091;28;20596;-87
2022/10/11 10:30:24;;;;;;;28.20;13.73;;;;;;;-145.69;100.00;52484.00;5074539;28;20198;-87
2022/10/11 10:32:55;;;;;;;25.67;13.18;;;;;;;-145.69;100.00;52480.03;5074385;28;20198;-86
2022/10/11 10:35:35;;;;;;;28.95;14.05;;;;;;;-145.69;100.00;52531.53;5067884;28;20191;-86
2022/10/11 10:38:15;;;;;;;31.42;13.18;;;;;;;-145.69;100.00;52519.63;5057808;28;20253;-86
2022/10/11 10:40:45;;;;;;;166.48;54.30;;;;;;;-145.69;100.00;52484.00;5057300;28;20199;-87
2022/10/11 10:43:16;;;;;;;30.88;14.73;;;;;;;-145.69;100.00;52503.81;5057948;28;20238;-86
2022/10/11 10:46:05;;;;;;;31.40;13.55;;;;;;;-145.69;100.00;52499.84;5061164;28;20203;-85
2022/10/11 10:48:37;;;;;;;23.08;10.73;;;;;;;-145.69;100.00;52523.59;5061220;28;20203;-87
2022/10/11 10:51:17;;;;;;;25.02;12.50;;;;;;;-145.69;100.00;52513.69;5060561;28;20257;-86
2022/10/11 10:53:47;;;;;;;23.80;10.43;;;;;;;-145.69;100.00;52489.94;5063208;28;20206;-88
2022/10/11 10:56:18;;;;;;;23.80;11.45;;;;;;;-145.69;100.00;52523.59;5077557;28;20210;-87
2022/10/11 10:59:00;;;;;;;19.65;9.52;;;;;;;-145.69;100.00;52484.00;5077958;28;20201;-87
2022/10/11 11:01:29;;;;;;;25.17;11.55;;;;;;;-145.69;100.00;52487.97;5076706;28;20195;-85
2022/10/11 11:04:04;;;;;;;24.73;11.13;;;;;;;-145.69;100.00;52505.78;5078685;28;20231;-86
2022/10/11 11:06:38;;;;;;;21.42;10.60;;;;;;;-145.69;100.00;52472.13;5078525;28;20198;-86
2022/10/11 11:09:19;;;;;;;27.77;11.60;;;;;;;-145.69;100.00;52491.91;5077545;28;20289;-87
2022/10/11 11:11:58;;;;;;;25.52;12.05;;;;;;;-145.69;100.00;52509.75;5078012;28;20206;-86